Time;durP1;ratioP1;P1;durP2;ratioP2;P2;SDS_P1;SDS_P2;PMS_P1;PMS_P2;Temp;Humidity;BMP_temperature;BMP_pressure;BME280_temperature;BME280_humidity;BME280_pressure;Samples;Min_cycle;Max_cycle;Signal;HPM_P1;HPM_P2
2023/09/29 00:00:35;;;;;;;14.80;8.80;;;;;;;12.15;82.72;100930.38;105585;1251;69076;-58
2023/09/29 00:03:23;;;;;;;14.70;8.50;;;;;;;12.11;82.93;100932.94;105542;1256;75596;-58
2023/09/29 00:05:53;;;;;;;14.20;8.90;;;;;;;12.08;82.83;100930.95;105547;1251;83809;-58
2023/09/29 00:08:22;;;;;;;14.60;9.40;;;;;;;12.05;82.95;100929.13;105536;1251;72754;-58
2023/09/29 00:10:51;;;;;;;13.20;8.70;;;;;;;12.04;83.16;100929.70;105636;1254;69211;-58
2023/09/29 00:13:19;;;;;;;10.80;8.50;;;;;;;12.04;83.46;100927.25;105811;1254;69103;-58
2023/09/29 00:15:48;;;;;;;12.40;8.80;;;;;;;12.04;83.24;100923.55;105675;1255;74829;-58
2023/09/29 00:18:17;;;;;;;13.40;9.00;;;;;;;12.02;83.27;100925.37;105596;1251;82656;-58
2023/09/29 00:20:45;;;;;;;11.90;8.20;;;;;;;11.98;83.36;100924.45;105562;1255;73973;-58
2023/09/29 00:23:15;;;;;;;10.80;9.40;;;;;;;11.97;83.49;100922.75;105648;1251;69183;-58
2023/09/29 00:25:43;;;;;;;13.50;8.10;;;;;;;11.97;83.64;100923.45;105647;1251;70582;-58
2023/09/29 00:28:11;;;;;;;13.90;8.90;;;;;;;11.97;83.79;100921.19;105622;1251;74582;-58
2023/09/29 00:30:40;;;;;;;11.90;7.90;;;;;;;11.97;83.84;100921.52;105568;1254;83401;-58
2023/09/29 00:33:08;;;;;;;11.70;9.00;;;;;;;11.97;84.07;100924.16;105564;1256;73705;-58
2023/09/29 00:35:37;;;;;;;11.80;8.30;;;;;;;11.95;84.13;100918.62;105495;1250;69167;-58
2023/09/29 00:38:05;;;;;;;11.50;8.80;;;;;;;11.95;84.27;100914.78;105593;1255;69158;-58
2023/09/29 00:40:35;;;;;;;10.50;8.50;;;;;;;11.94;84.31;100920.03;105639;1256;73727;-58
2023/09/29 00:43:04;;;;;;;11.30;8.70;;;;;;;11.93;84.39;100921.64;105432;1251;82587;-58
2023/09/29 00:45:33;;;;;;;12.50;8.40;;;;;;;11.93;84.47;100922.36;105646;1255;72934;-58
2023/09/29 00:48:07;;;;;;;17.20;9.40;;;;;;;11.93;84.57;100925.51;105482;1257;69108;-58
2023/09/29 00:50:37;;;;;;;14.70;8.60;;;;;;;11.92;84.57;100920.49;105537;1251;69080;-58
2023/09/29 00:53:11;;;;;;;12.70;8.90;;;;;;;11.96;85.47;100918.59;105595;1251;73975;-58
2023/09/29 00:55:45;;;;;;;11.50;8.50;;;;;;;11.97;85.27;100916.27;105615;1255;83272;-58
2023/09/29 00:58:15;;;;;;;14.50;7.60;;;;;;;11.97;85.13;100916.79;105558;1256;73769;-58
2023/09/29 01:00:45;;;;;;;11.10;7.90;;;;;;;11.97;85.15;100918.88;105608;1255;69294;-58
2023/09/29 01:03:15;;;;;;;14.00;8.20;;;;;;;11.96;85.11;100915.95;105814;1255;69175;-56
2023/09/29 01:05:49;;;;;;;11.50;8.40;;;;;;;11.95;85.30;100913.87;105611;1251;73741;-57
2023/09/29 01:08:20;;;;;;;12.80;8.60;;;;;;;11.95;85.72;100915.11;105765;1254;83002;-57
2023/09/29 01:10:49;;;;;;;11.90;8.60;;;;;;;11.98;85.96;100913.77;105444;1257;73568;-57
2023/09/29 01:13:18;;;;;;;12.00;9.30;;;;;;;12.00;86.44;100912.48;105554;1254;70724;-57
2023/09/29 01:15:47;;;;;;;10.60;8.20;;;;;;;12.11;86.90;100905.99;105649;1255;69205;-57
2023/09/29 01:18:19;;;;;;;13.10;9.80;;;;;;;12.18;87.00;100908.52;105644;1254;73807;-57
2023/09/29 01:20:48;;;;;;;10.40;8.90;;;;;;;12.24;87.20;100913.55;105475;1251;83340;-57
2023/09/29 01:23:16;;;;;;;12.10;9.00;;;;;;;12.30;87.38;100914.92;105752;1251;73592;-56
2023/09/29 01:25:46;;;;;;;14.60;10.20;;;;;;;12.39;87.78;100916.38;105518;1254;69187;-57
2023/09/29 01:28:14;;;;;;;16.20;10.10;;;;;;;12.50;88.15;100911.76;105775;1251;69066;-58
2023/09/29 01:30:44;;;;;;;13.40;10.10;;;;;;;12.63;88.62;100907.22;105563;1251;74505;-57
2023/09/29 01:33:13;;;;;;;;;;;;;;;12.77;88.81;100906.17;105593;1251;83359;-57
2023/09/29 01:35:44;;;;;;;14.50;10.30;;;;;;;12.87;88.58;100904.41;105594;1251;73735;-57
2023/09/29 01:38:13;;;;;;;14.00;9.50;;;;;;;12.91;88.16;100901.96;105618;1251;69174;-57
2023/09/29 01:40:44;;;;;;;12.00;10.20;;;;;;;12.96;88.42;100905.46;105736;1255;69110;-57
2023/09/29 01:43:13;;;;;;;14.00;10.10;;;;;;;13.03;88.42;100906.08;105575;1251;74795;-57
2023/09/29 01:45:42;;;;;;;15.90;9.90;;;;;;;13.10;88.40;100903.66;105674;1251;83641;-57
2023/09/29 01:48:11;;;;;;;12.80;10.00;;;;;;;13.15;88.14;100902.96;105580;1255;72519;-57
2023/09/29 01:50:40;;;;;;;13.50;9.50;;;;;;;13.17;88.02;100901.98;105576;1251;69131;-57
2023/09/29 01:53:11;;;;;;;24.10;10.60;;;;;;;13.20;88.19;100901.53;105687;1251;69109;-57
2023/09/29 01:55:40;;;;;;;11.80;10.00;;;;;;;13.26;88.24;100901.67;105619;1251;73762;-57
2023/09/29 01:58:09;;;;;;;13.20;10.30;;;;;;;13.31;88.13;100902.35;105441;1256;83670;-57
2023/09/29 02:00:38;;;;;;;14.90;9.50;;;;;;;13.35;88.06;100898.69;105600;1253;72718;-57
2023/09/29 02:03:07;;;;;;;13.40;10.00;;;;;;;13.34;88.00;100897.30;105497;1257;69203;-57
2023/09/29 02:05:37;;;;;;;12.40;9.60;;;;;;;13.36;87.81;100895.96;105493;1251;69180;-57
2023/09/29 02:08:06;;;;;;;13.70;10.20;;;;;;;13.37;87.79;100895.64;105493;1257;74792;-57
2023/09/29 02:10:35;;;;;;;13.90;9.70;;;;;;;13.39;87.65;100894.84;105655;1253;83445;-57
2023/09/29 02:13:04;;;;;;;15.10;9.90;;;;;;;13.41;87.67;100897.38;105621;1253;73032;-58
2023/09/29 02:15:34;;;;;;;;;;;;;;;13.43;87.28;100896.95;105499;1253;69198;-58
2023/09/29 02:18:04;;;;;;;11.90;9.70;;;;;;;13.42;87.57;100897.68;105585;1251;69056;-58
2023/09/29 02:20:34;;;;;;;12.80;9.30;;;;;;;13.41;87.27;100897.06;105665;1255;73896;-58
2023/09/29 02:23:04;;;;;;;15.50;9.60;;;;;;;13.37;87.45;100898.92;105571;1251;83341;-58
2023/09/29 02:25:32;;;;;;;;;;;;;;;13.39;87.43;100898.68;105622;1254;73829;-58
2023/09/29 02:28:01;;;;;;;17.60;9.00;;;;;;;13.38;86.99;100901.35;105510;1254;69173;-58
2023/09/29 02:30:29;;;;;;;14.00;8.60;;;;;;;13.34;86.87;100901.01;105471;1257;69270;-58
2023/09/29 02:32:58;;;;;;;15.10;10.10;;;;;;;13.32;86.74;100899.70;105614;1251;73791;-59
2023/09/29 02:35:27;;;;;;;12.60;8.90;;;;;;;13.32;87.14;100902.31;105486;1257;83010;-58
2023/09/29 02:37:55;;;;;;;13.40;9.30;;;;;;;13.32;86.87;100901.94;105586;1253;72662;-58
2023/09/29 02:40:24;;;;;;;15.10;10.10;;;;;;;13.29;86.47;100901.20;105610;1256;69192;-58
2023/09/29 02:42:53;;;;;;;13.50;9.10;;;;;;;13.25;86.39;100898.36;105661;1255;69260;-58
2023/09/29 02:45:24;;;;;;;14.00;9.70;;;;;;;13.24;86.87;100896.12;105560;1256;74907;-58
2023/09/29 02:47:53;;;;;;;12.50;9.40;;;;;;;13.24;86.85;100896.11;105609;1255;82413;-58
2023/09/29 02:50:24;;;;;;;13.40;9.40;;;;;;;13.21;86.62;100895.36;105605;1253;73725;-58
2023/09/29 02:52:53;;;;;;;16.40;9.40;;;;;;;13.16;86.25;100893.45;105557;1256;69179;-58
2023/09/29 02:55:22;;;;;;;18.00;9.80;;;;;;;13.11;86.44;100893.45;105732;1254;69518;-58
2023/09/29 02:57:51;;;;;;;15.60;9.50;;;;;;;13.13;86.95;100891.96;105542;1256;73904;-58
2023/09/29 03:00:22;;;;;;;13.60;9.30;;;;;;;13.17;86.93;100891.10;105745;1256;83609;-58
2023/09/29 03:02:53;;;;;;;17.80;9.80;;;;;;;13.19;87.04;100892.60;105558;1256;72447;-58
2023/09/29 03:05:23;;;;;;;12.60;9.50;;;;;;;13.21;87.27;100890.96;105628;1251;69291;-58
2023/09/29 03:07:52;;;;;;;15.10;9.70;;;;;;;13.26;87.10;100890.95;105652;1253;69176;-58
2023/09/29 03:10:25;;;;;;;15.50;10.00;;;;;;;13.25;86.97;100888.01;105628;1251;74572;-58
2023/09/29 03:12:56;;;;;;;10.30;8.80;;;;;;;13.27;87.15;100889.02;105621;1251;82499;-58
2023/09/29 03:15:26;;;;;;;13.40;9.60;;;;;;;13.30;87.10;100886.77;105734;1257;73784;-58
2023/09/29 03:17:55;;;;;;;13.40;8.60;;;;;;;13.29;87.01;100883.83;105646;1257;69182;-58
2023/09/29 03:20:28;;;;;;;15.20;9.50;;;;;;;13.30;87.03;100889.23;105616;1251;69080;-58
2023/09/29 03:23:04;;;;;;;11.80;9.40;;;;;;;13.31;87.09;100886.88;105636;1255;73862;-58
2023/09/29 03:25:32;;;;;;;12.70;9.00;;;;;;;13.27;86.50;100889.15;105605;1251;83604;-58
2023/09/29 03:28:03;;;;;;;12.20;8.60;;;;;;;13.21;86.19;100885.00;105587;1255;73687;-58
2023/09/29 03:30:32;;;;;;;12.10;8.90;;;;;;;13.19;86.59;100882.45;105770;1256;69189;-58
2023/09/29 03:33:00;;;;;;;12.60;9.10;;;;;;;13.21;86.68;100881.68;105728;1257;68991;-58
2023/09/29 03:35:29;;;;;;;12.90;8.70;;;;;;;13.17;86.25;100880.92;105599;1255;73747;-58
2023/09/29 03:37:57;;;;;;;11.40;9.00;;;;;;;13.11;85.99;100883.63;105708;1257;83541;-58
2023/09/29 03:40:26;;;;;;;16.70;9.60;;;;;;;13.07;86.21;100879.93;105611;1251;73434;-58
2023/09/29 03:42:55;;;;;;;13.10;8.70;;;;;;;13.05;86.39;100878.08;105640;1251;69062;-58
2023/09/29 03:45:25;;;;;;;13.60;9.10;;;;;;;13.01;85.96;100879.30;105702;1251;69163;-58
2023/09/29 03:47:53;;;;;;;14.90;8.50;;;;;;;12.94;86.09;100880.09;105622;1255;74673;-58
2023/09/29 03:50:22;;;;;;;12.70;8.70;;;;;;;12.91;86.18;100879.15;105798;1251;82425;-58
2023/09/29 03:52:50;;;;;;;10.60;8.50;;;;;;;12.85;85.74;100884.31;105586;1254;72974;-58
2023/09/29 03:55:18;;;;;;;13.40;10.10;;;;;;;12.76;85.55;100880.27;105625;1257;69074;-58
2023/09/29 03:57:48;;;;;;;12.60;8.80;;;;;;;12.71;86.02;100877.48;105610;1256;69102;-58
2023/09/29 04:00:18;;;;;;;13.00;8.40;;;;;;;12.67;85.79;100874.99;105749;1251;74573;-58
2023/09/29 04:02:50;;;;;;;13.40;8.70;;;;;;;12.58;85.72;100872.89;105614;1256;83051;-58
2023/09/29 04:05:20;;;;;;;10.60;8.00;;;;;;;12.55;86.09;100871.22;105672;1251;72824;-58
2023/09/29 04:07:48;;;;;;;13.10;9.20;;;;;;;12.53;86.33;100873.79;105611;1255;69104;-58
2023/09/29 04:10:17;;;;;;;16.80;9.90;;;;;;;12.53;86.54;100869.73;105616;1256;69119;-58
2023/09/29 04:12:46;;;;;;;15.20;9.20;;;;;;;12.50;86.60;100863.36;105670;1251;75019;-58
2023/09/29 04:15:15;;;;;;;14.30;9.80;;;;;;;12.53;87.06;100866.77;105679;1256;83319;-58
2023/09/29 04:17:44;;;;;;;11.30;9.40;;;;;;;12.56;87.46;100866.69;105771;1254;72599;-58
2023/09/29 04:20:13;;;;;;;11.90;9.40;;;;;;;12.60;87.57;100866.67;105650;1255;69131;-58
2023/09/29 04:22:41;;;;;;;15.80;9.30;;;;;;;12.62;87.66;100864.84;105642;1252;69112;-58
2023/09/29 04:25:10;;;;;;;13.40;9.80;;;;;;;12.69;88.30;100864.76;105601;1255;74688;-58
2023/09/29 04:27:39;;;;;;;10.70;9.50;;;;;;;12.74;88.08;100868.59;105607;1251;83405;-58
2023/09/29 04:30:09;;;;;;;13.20;9.60;;;;;;;12.71;87.57;100863.78;105601;1253;73649;-58
2023/09/29 04:32:38;;;;;;;12.30;9.30;;;;;;;12.74;87.87;100857.90;105518;1255;69216;-58
2023/09/29 04:35:07;;;;;;;13.10;8.80;;;;;;;12.78;87.91;100860.55;105630;1255;69142;-58
2023/09/29 04:37:36;;;;;;;13.90;10.00;;;;;;;12.78;87.83;100861.63;105592;1255;73341;-58
2023/09/29 04:40:05;;;;;;;13.50;10.00;;;;;;;12.81;87.85;100862.19;105712;1253;83124;-58
2023/09/29 04:42:34;;;;;;;11.50;9.00;;;;;;;12.86;88.30;100858.85;105628;1251;73921;-58
2023/09/29 04:45:03;;;;;;;12.40;9.20;;;;;;;12.91;88.18;100862.14;105787;1253;69102;-56
2023/09/29 04:47:32;;;;;;;13.40;9.90;;;;;;;12.97;88.39;100862.27;105630;1256;69212;-55
2023/09/29 04:50:01;;;;;;;17.90;9.80;;;;;;;13.03;88.40;100863.24;105894;1256;75196;-55
2023/09/29 04:52:30;;;;;;;15.10;10.30;;;;;;;13.10;88.35;100861.92;105601;1254;83249;-56
2023/09/29 04:54:59;;;;;;;13.00;9.50;;;;;;;13.14;88.17;100855.23;105704;1253;73732;-55
2023/09/29 04:57:27;;;;;;;12.90;9.60;;;;;;;13.18;88.13;100857.39;105897;1256;69253;-57
2023/09/29 04:59:56;;;;;;;14.90;10.30;;;;;;;13.23;88.16;100858.08;105778;1255;69085;-55
2023/09/29 05:02:29;;;;;;;14.50;9.50;;;;;;;13.26;88.07;100858.15;105869;1254;73791;-55
2023/09/29 05:04:58;;;;;;;14.20;10.20;;;;;;;13.27;87.81;100860.55;105701;1256;83139;-57
2023/09/29 05:07:26;;;;;;;17.40;9.70;;;;;;;13.29;87.79;100860.13;105855;1256;73216;-55
2023/09/29 05:09:54;;;;;;;15.20;9.80;;;;;;;13.31;87.88;100858.13;105515;1257;69986;-51
2023/09/29 05:12:23;;;;;;;13.90;9.30;;;;;;;13.34;87.76;100860.98;105866;1253;69163;-56
2023/09/29 05:14:51;;;;;;;13.40;9.40;;;;;;;13.38;87.77;100862.23;105735;1256;73804;-54
2023/09/29 05:17:19;;;;;;;16.80;9.80;;;;;;;13.42;87.82;100864.19;105737;1253;82435;-57
2023/09/29 05:19:48;;;;;;;15.20;8.80;;;;;;;13.46;87.93;100862.25;105515;1253;72692;-57
2023/09/29 05:22:16;;;;;;;12.90;9.50;;;;;;;13.50;87.76;100857.86;105591;1253;70003;-54
2023/09/29 05:24:45;;;;;;;13.00;9.10;;;;;;;13.52;87.59;100860.75;105778;1253;69952;-50
2023/09/29 05:27:14;;;;;;;11.50;9.20;;;;;;;13.56;87.66;100860.96;105652;1256;73826;-49
2023/09/29 05:29:42;;;;;;;12.00;9.30;;;;;;;13.59;87.49;100864.16;105667;1256;83318;-50
2023/09/29 05:32:10;;;;;;;12.30;9.60;;;;;;;13.61;87.43;100867.58;105784;1255;72799;-53
2023/09/29 05:34:39;;;;;;;14.20;9.80;;;;;;;13.63;87.35;100875.20;105610;1256;69126;-52
2023/09/29 05:37:08;;;;;;;18.80;9.80;;;;;;;13.65;87.31;100875.15;105667;1253;69139;-53
2023/09/29 05:39:36;;;;;;;13.20;9.10;;;;;;;13.68;87.43;100873.45;105564;1255;73770;-54
2023/09/29 05:42:05;;;;;;;11.40;9.80;;;;;;;13.71;87.39;100872.77;105748;1255;83611;-56
2023/09/29 05:44:33;;;;;;;15.00;9.20;;;;;;;13.75;87.37;100874.39;105596;1255;72607;-52
2023/09/29 05:47:02;;;;;;;12.00;8.80;;;;;;;13.78;87.22;100874.25;105536;1256;69089;-54
2023/09/29 05:49:32;;;;;;;11.20;9.10;;;;;;;13.82;87.34;100876.53;105742;1251;69080;-55
2023/09/29 05:52:00;;;;;;;12.20;9.10;;;;;;;13.86;87.14;100877.94;105680;1253;74728;-54
2023/09/29 05:54:29;;;;;;;10.40;8.40;;;;;;;13.89;87.00;100880.29;105589;1253;82423;-55
2023/09/29 05:56:57;;;;;;;15.80;9.60;;;;;;;13.91;87.03;100883.35;105591;1254;73657;-55
2023/09/29 05:59:25;;;;;;;15.20;10.20;;;;;;;13.95;86.93;100886.68;105663;1254;69291;-55
2023/09/29 06:01:54;;;;;;;12.80;8.70;;;;;;;13.98;86.97;100886.39;105691;1255;69175;-54
2023/09/29 06:04:42;;;;;;;14.80;9.20;;;;;;;14.01;86.83;100890.29;105633;1253;74578;-54
2023/09/29 06:07:10;;;;;;;12.90;9.50;;;;;;;14.06;86.78;100893.78;105567;1255;83652;-55
2023/09/29 06:09:39;;;;;;;12.90;8.40;;;;;;;14.10;86.87;100895.34;105559;1254;73565;-53
2023/09/29 06:12:07;;;;;;;16.60;9.60;;;;;;;14.16;86.72;100900.20;105618;1255;69221;-54
2023/09/29 06:14:35;;;;;;;11.50;8.60;;;;;;;14.20;86.77;100901.23;105723;1254;69252;-56
2023/09/29 06:17:04;;;;;;;11.70;9.00;;;;;;;14.25;86.58;100901.38;105583;1256;73765;-54
2023/09/29 06:19:32;;;;;;;15.30;9.80;;;;;;;14.30;86.64;100898.34;105571;1253;81658;-56
2023/09/29 06:22:00;;;;;;;11.80;9.30;;;;;;;14.35;86.58;100903.73;105528;1255;192240;-54
2023/09/29 06:24:29;;;;;;;15.30;9.20;;;;;;;14.40;86.52;100903.35;105651;1253;69578;-54
2023/09/29 06:26:57;;;;;;;14.50;8.80;;;;;;;14.44;86.45;100900.85;105584;1255;69036;-56
2023/09/29 06:29:27;;;;;;;12.80;8.60;;;;;;;14.50;86.44;100896.73;105609;1255;74560;-54
2023/09/29 06:31:56;;;;;;;14.70;8.60;;;;;;;14.56;86.29;100899.15;105752;1256;82204;-52
2023/09/29 06:34:24;;;;;;;14.40;9.70;;;;;;;14.60;86.27;100897.89;105855;1253;73558;-54
2023/09/29 06:36:53;;;;;;;12.20;9.20;;;;;;;14.64;86.05;100900.52;105556;1255;69112;-54
2023/09/29 06:39:22;;;;;;;10.50;8.40;;;;;;;14.70;85.97;100898.67;105836;1253;69131;-55
2023/09/29 06:41:51;;;;;;;17.90;9.00;;;;;;;14.76;86.00;100897.35;105654;1255;75108;-55
2023/09/29 06:44:19;;;;;;;13.00;8.80;;;;;;;14.82;85.98;100895.98;105608;1256;82357;-54
2023/09/29 06:46:47;;;;;;;17.90;9.30;;;;;;;14.88;86.01;100895.17;105511;1254;73698;-51
2023/09/29 06:49:16;;;;;;;12.40;8.40;;;;;;;14.96;85.96;100897.63;105514;1253;69183;-54
2023/09/29 06:51:44;;;;;;;14.00;9.50;;;;;;;15.02;85.76;100901.72;105578;1256;69736;-56
2023/09/29 06:54:12;;;;;;;15.00;9.30;;;;;;;15.08;85.61;100904.29;105822;1255;75408;-57
2023/09/29 06:56:41;;;;;;;13.50;7.80;;;;;;;15.13;85.47;100902.77;105548;1253;83534;-54
2023/09/29 06:59:09;;;;;;;13.10;8.50;;;;;;;15.20;85.43;100903.53;105705;1254;73675;-52
2023/09/29 07:01:37;;;;;;;12.50;8.20;;;;;;;15.26;85.17;100903.20;105780;1251;69880;-50
2023/09/29 07:04:06;;;;;;;12.80;8.50;;;;;;;15.32;85.08;100906.60;105672;1255;69888;-54
2023/09/29 07:06:36;;;;;;;14.20;8.40;;;;;;;15.39;84.93;100906.46;105733;1255;74842;-50
2023/09/29 07:09:06;;;;;;;14.50;8.20;;;;;;;15.46;84.77;100903.84;105551;1253;83390;-50
2023/09/29 07:11:35;;;;;;;12.60;8.60;;;;;;;15.52;84.65;100899.29;105694;1253;71577;-52
2023/09/29 07:14:04;;;;;;;13.80;8.60;;;;;;;15.60;84.59;100897.68;105755;1256;70009;-54
2023/09/29 07:16:33;;;;;;;12.40;8.30;;;;;;;15.68;84.43;100897.83;105659;1253;69182;-55
2023/09/29 07:19:03;;;;;;;12.10;8.70;;;;;;;15.75;84.35;100891.47;105613;1256;73826;-55
2023/09/29 07:21:31;;;;;;;;;;;;;;;15.86;84.46;100891.98;105546;1250;82578;-54
2023/09/29 07:24:00;;;;;;;13.70;9.40;;;;;;;15.95;84.37;100893.62;105669;1254;71828;-53
2023/09/29 07:26:29;;;;;;;11.90;7.80;;;;;;;16.07;84.47;100890.58;105545;1256;69838;-55
2023/09/29 07:29:01;;;;;;;11.60;7.90;;;;;;;16.18;84.27;100898.10;105788;1254;69186;-53
2023/09/29 07:31:35;;;;;;;14.80;8.10;;;;;;;16.29;83.96;100897.33;105862;1255;75476;-58
2023/09/29 07:34:04;;;;;;;10.60;8.10;;;;;;;16.40;83.73;100899.25;105716;1256;83231;-50
2023/09/29 07:36:33;;;;;;;10.60;7.00;;;;;;;16.51;83.59;100895.66;105642;1255;74066;-53
2023/09/29 07:39:01;;;;;;;14.10;8.10;;;;;;;16.61;83.25;100894.25;105719;1254;69847;-54
2023/09/29 07:41:30;;;;;;;10.20;7.00;;;;;;;16.71;83.07;100894.17;105900;1256;69107;-53
2023/09/29 07:43:58;;;;;;;12.50;7.30;;;;;;;16.81;82.78;100893.65;105615;1256;74123;-54
2023/09/29 07:46:27;;;;;;;11.70;7.50;;;;;;;16.91;82.58;100896.10;109311;1251;82304;-56
2023/09/29 07:48:55;;;;;;;11.60;7.10;;;;;;;17.02;82.44;100894.12;108500;1254;74232;-52
2023/09/29 07:51:25;;;;;;;14.00;7.50;;;;;;;17.13;82.33;100894.89;105586;1253;69065;-54
2023/09/29 07:53:53;;;;;;;9.50;6.30;;;;;;;17.26;81.93;100894.36;105851;1255;69986;-50
2023/09/29 07:56:21;;;;;;;12.70;7.60;;;;;;;17.36;81.56;100896.04;105528;1256;73680;-58
2023/09/29 07:58:51;;;;;;;10.30;6.70;;;;;;;17.50;81.51;100898.75;105621;1256;83702;-50
2023/09/29 08:01:19;;;;;;;9.60;7.20;;;;;;;17.63;81.38;100897.13;105591;1256;74003;-55
2023/09/29 08:03:48;;;;;;;12.30;7.40;;;;;;;17.77;80.99;100902.17;105672;1251;69064;-57
2023/09/29 08:06:18;;;;;;;12.70;7.00;;;;;;;17.87;80.61;100899.66;105708;1255;69202;-57
2023/09/29 08:08:47;;;;;;;9.70;7.20;;;;;;;17.99;80.58;100900.90;105668;1256;73137;-57
2023/09/29 08:11:16;;;;;;;10.80;6.80;;;;;;;18.13;80.38;100903.23;105602;1256;82493;-57
2023/09/29 08:13:46;;;;;;;9.60;6.60;;;;;;;18.29;80.11;100904.34;105539;1251;73688;-58
2023/09/29 08:16:15;;;;;;;9.30;7.10;;;;;;;18.44;79.82;100901.16;105739;1254;69143;-57
2023/09/29 08:18:44;;;;;;;11.50;7.20;;;;;;;18.59;79.58;100901.83;105650;1251;69060;-56
2023/09/29 08:21:12;;;;;;;13.80;7.00;;;;;;;18.72;79.03;100898.71;105564;1254;74735;-58
2023/09/29 08:23:41;;;;;;;10.00;7.10;;;;;;;18.86;79.08;100899.77;105777;1255;83392;-57
2023/09/29 08:26:09;;;;;;;12.30;7.20;;;;;;;19.05;78.73;100894.68;105544;1254;73801;-58
2023/09/29 08:28:38;;;;;;;11.30;7.10;;;;;;;19.19;78.50;100893.05;105592;1254;69159;-57
2023/09/29 08:31:15;;;;;;;10.70;6.80;;;;;;;19.35;77.97;100897.15;105787;1253;69183;-57
2023/09/29 08:33:43;;;;;;;12.60;7.30;;;;;;;19.48;77.72;100893.98;105606;1255;73378;-57
2023/09/29 08:36:18;;;;;;;11.40;7.10;;;;;;;19.65;77.55;100899.24;105626;1255;83444;-58
2023/09/29 08:38:47;;;;;;;11.20;7.30;;;;;;;19.82;77.59;100899.50;105618;1251;72932;-57
2023/09/29 08:41:18;;;;;;;11.90;6.60;;;;;;;20.02;77.68;100896.40;105592;1256;69129;-58
2023/09/29 08:43:47;;;;;;;12.40;6.70;;;;;;;20.19;76.87;100895.23;105589;1255;69163;-57
2023/09/29 08:46:35;;;;;;;11.20;7.00;;;;;;;20.33;76.34;100893.50;105695;1253;73561;-58
2023/09/29 08:49:03;;;;;;;;;;;;;;;20.49;75.94;100896.16;105682;1255;83317;-58
2023/09/29 08:51:33;;;;;;;14.70;6.40;;;;;;;20.65;75.55;100894.28;105505;1257;73772;-58
2023/09/29 08:54:06;;;;;;;11.20;6.50;;;;;;;20.81;74.99;100892.80;105596;1254;69150;-58
2023/09/29 08:56:34;;;;;;;10.00;6.80;;;;;;;20.98;74.64;100888.23;105645;1256;69142;-57
2023/09/29 08:59:03;;;;;;;9.00;6.00;;;;;;;21.18;74.94;100880.88;105685;1259;74862;-57
2023/09/29 09:01:32;;;;;;;10.50;6.80;;;;;;;21.39;74.77;100879.85;105617;1255;83277;-57
2023/09/29 09:04:00;;;;;;;11.60;6.50;;;;;;;21.63;74.36;100883.07;105650;1256;73688;-57
2023/09/29 09:06:30;;;;;;;10.60;6.90;;;;;;;21.82;73.66;100876.42;105591;1251;69163;-57
2023/09/29 09:08:58;;;;;;;11.70;6.90;;;;;;;22.04;73.50;100882.23;105622;1254;69059;-58
2023/09/29 09:11:28;;;;;;;14.20;6.80;;;;;;;22.24;72.64;100879.29;105780;1256;74312;-58
2023/09/29 09:13:59;;;;;;;10.50;6.70;;;;;;;22.37;71.71;100879.52;105644;1256;81787;-58
2023/09/29 09:16:29;;;;;;;7.40;6.60;;;;;;;22.53;71.26;100875.79;105600;1256;73934;-58
2023/09/29 09:19:14;;;;;;;7.60;6.40;;;;;;;22.71;71.12;100875.89;105620;1257;69106;-57
2023/09/29 09:21:43;;;;;;;10.40;6.40;;;;;;;22.97;70.77;100877.55;105563;1256;69110;-58
2023/09/29 09:24:22;;;;;;;12.30;6.70;;;;;;;23.18;70.01;100874.42;105610;1256;75034;-58
2023/09/29 09:26:52;;;;;;;10.90;6.10;;;;;;;23.36;69.38;100873.83;105576;1256;83343;-58
2023/09/29 09:29:21;;;;;;;13.30;6.60;;;;;;;23.52;68.78;100871.41;105486;1259;72707;-57
2023/09/29 09:31:51;;;;;;;12.30;6.60;;;;;;;23.69;68.67;100874.64;105650;1255;69123;-58
2023/09/29 09:34:19;;;;;;;11.40;5.60;;;;;;;23.90;68.25;100870.52;105631;1251;69833;-58
2023/09/29 09:36:50;;;;;;;11.50;6.20;;;;;;;24.12;67.62;100872.73;105604;1254;74837;-58
2023/09/29 09:39:22;;;;;;;11.50;6.00;;;;;;;24.32;66.87;100872.40;105595;1256;83363;-58
2023/09/29 09:41:53;;;;;;;9.70;5.90;;;;;;;24.52;66.32;100870.85;105734;1256;73843;-58
2023/09/29 09:44:22;;;;;;;11.10;6.10;;;;;;;24.75;65.60;100869.23;105615;1254;69161;-58
2023/09/29 09:47:03;;;;;;;10.80;6.80;;;;;;;24.93;65.12;100867.75;105755;1252;69278;-58
2023/09/29 09:49:38;;;;;;;12.00;6.80;;;;;;;25.16;64.54;100863.05;105590;1257;75063;-58
2023/09/29 09:52:08;;;;;;;13.20;6.40;;;;;;;25.37;63.91;100867.02;105730;1255;82721;-58
2023/09/29 09:54:48;;;;;;;9.50;6.20;;;;;;;25.56;63.52;100861.81;105580;1256;72737;-58
2023/09/29 09:57:26;;;;;;;10.90;5.70;;;;;;;25.81;62.87;100857.55;105610;1256;69132;-58
2023/09/29 09:59:54;;;;;;;10.80;6.00;;;;;;;26.07;62.36;100858.38;105651;1256;69173;-58
2023/09/29 10:02:24;;;;;;;6.70;5.40;;;;;;;26.30;61.37;100854.52;105614;1256;73846;-58
2023/09/29 10:04:54;;;;;;;;;;;;;;;26.57;61.39;100850.35;105598;1256;83090;-58
2023/09/29 10:07:22;;;;;;;8.80;5.30;;;;;;;26.86;60.38;100849.42;105589;1256;72810;-58
2023/09/29 10:09:50;;;;;;;8.10;4.90;;;;;;;27.10;59.46;100849.27;105581;1256;69755;-58
2023/09/29 10:12:23;;;;;;;7.30;5.30;;;;;;;27.26;58.66;100843.73;105532;1256;69117;-58
2023/09/29 10:14:52;;;;;;;8.10;5.20;;;;;;;27.48;57.95;100844.48;105608;1255;75098;-58
2023/09/29 10:17:20;;;;;;;11.30;5.40;;;;;;;27.64;56.65;100848.11;105585;1257;83214;-58
2023/09/29 10:19:54;;;;;;;7.10;4.80;;;;;;;27.80;56.11;100845.75;105666;1250;73655;-58
2023/09/29 10:22:24;;;;;;;7.80;5.30;;;;;;;28.04;55.42;100847.77;105643;1252;69159;-58
2023/09/29 10:24:56;;;;;;;6.50;4.70;;;;;;;28.35;54.86;100847.46;105711;1256;69176;-58
2023/09/29 10:27:31;;;;;;;6.40;4.30;;;;;;;28.53;54.05;100847.02;105594;1257;75026;-58
2023/09/29 10:30:16;;;;;;;7.40;4.40;;;;;;;28.58;53.06;100845.23;105578;1251;83588;-58
2023/09/29 10:32:48;;;;;;;10.60;5.20;;;;;;;28.72;51.92;100841.20;105616;1256;73233;-58
2023/09/29 10:35:22;;;;;;;9.50;4.60;;;;;;;28.80;51.47;100836.73;105593;1256;69278;-58
2023/09/29 10:37:54;;;;;;;13.30;5.00;;;;;;;28.91;51.21;100836.38;105573;1257;69168;-58
2023/09/29 10:40:32;;;;;;;8.30;4.70;;;;;;;28.95;50.43;100842.02;105578;1257;73869;-56
2023/09/29 10:43:04;;;;;;;6.10;4.40;;;;;;;28.93;50.00;100837.83;105603;1254;82532;-58
2023/09/29 10:45:36;;;;;;;8.90;4.40;;;;;;;29.06;49.88;100835.04;105551;1255;72728;-58
2023/09/29 10:48:07;;;;;;;10.90;4.80;;;;;;;29.29;49.50;100838.29;105611;1251;69228;-58
2023/09/29 10:50:39;;;;;;;6.00;4.10;;;;;;;29.38;48.85;100835.54;105587;1255;69049;-58
2023/09/29 10:53:09;;;;;;;6.80;4.20;;;;;;;29.35;48.03;100829.91;105615;1260;74833;-58
2023/09/29 10:55:46;;;;;;;9.80;4.70;;;;;;;29.47;47.85;100830.38;105647;1252;82533;-58
2023/09/29 10:58:16;;;;;;;8.60;4.40;;;;;;;29.40;47.23;100828.73;105626;1256;73849;-58
2023/09/29 11:00:50;;;;;;;9.40;4.90;;;;;;;29.50;47.04;100824.48;105595;1256;69177;-58
2023/09/29 11:03:26;;;;;;;8.70;4.50;;;;;;;29.78;46.88;100823.91;105587;1251;69134;-58
2023/09/29 11:05:58;;;;;;;8.40;4.30;;;;;;;30.01;46.71;100823.83;105630;1255;74807;-58
2023/09/29 11:08:35;;;;;;;9.30;4.40;;;;;;;30.18;46.21;100822.38;105579;1251;83340;-57
2023/09/29 11:11:05;;;;;;;7.30;4.30;;;;;;;30.26;45.82;100816.80;105568;1251;72573;-58
2023/09/29 11:13:33;;;;;;;8.30;4.00;;;;;;;30.31;45.34;100818.79;105597;1256;69163;-58
2023/09/29 11:16:04;;;;;;;9.20;4.80;;;;;;;30.21;45.27;100815.95;105602;1256;69551;-58
2023/09/29 11:18:34;;;;;;;6.40;4.10;;;;;;;30.16;44.87;100813.73;105640;1256;74881;-58
2023/09/29 11:21:08;;;;;;;9.60;4.10;;;;;;;30.10;44.77;100809.14;105616;1256;83305;-58
2023/09/29 11:23:43;;;;;;;7.10;4.00;;;;;;;30.09;44.87;100805.86;105575;1256;72336;-58